Orlando, Florida
Traffic Map
Current Weather Conditions
Orlando, Florida
Clear
Clear
74°
Feels Like: 74°
Wind Chill: 74° Ceiling: Unl
Heat Index: 74° Visibility: 10mi
Dew Point: 69° Wind: 5mph
Humidity: 85% Direction: 170° (S)
Pressure: 30.14in Gusts: 0mph
Raw Report DataKORL 070153Z AUTO 17004KT 10SM CLR 23/21 A3014 RMK AO2 SLP211 T02330206
Traffic Incident Summary
Active as of:
Severity:
Category:
InformationThere was an issue retrieving the traffic information for this location. Please try a different location or try again shortly.
Advertisements
Track Severe Weather on mobile